LLPO weather

Poriya Medical Center
Northern District, Israel

Public forecast

Using degrees Celsius for public forecast. Weather courtesy of forecast.io.

Closest aviation weather report (METAR) to Poriya Medical Center

Closest report is Ben Ya'akov Airport, 13.7 nm (25.4 km) N. Retrieved 2020/02/17 10:50 UTC (1 hour ago):

LLIB 171050Z VRB03KT CAVOK 16/05 Q1017

Closest aviation forecast (TAF) to Poriya Medical Center

Closest forecast is Ben Ya'akov Airport, 13.7 nm (25.4 km) N. Retrieved 2020/02/17 06:12 UTC (6 hours ago):

TAF TAF LLIB 170503Z 1706/1806 VRB03KT CAVOK BECMG 1707/1709 17005KT 9999 SCT045 BECMG 1714/1716 04008KT CAVOK TX16/1712Z TN10/1804Z